Hauptseite
METAR-TAF:

METAR-TAF

Flughäfen :

Osorno, Chile

Breite: 40-36-41S, Länge: 73-03-38W, Höhe: 57 m

Beobachtung

Neuester Wetterbericht von vor 51 Minuten, um 11:00 UTC
Wind 2 kt aus unterschiedlichen Richtungen
Temperatur 11°C
Luftfeuchtigkeit 82%
Luftdruck 1020 hPa
Sichtweite 10 km oder mehr
keine Wolken unter 1500 m und keine Kumulonimbus oder Gewitterwolken

METAR: SCJO 241100Z VRB02KT CAVOK 11/08 Q1020

Zeit: 08:51 (11:51 UTC)

Prognose

Neuester Wetterbericht von vor 1 Stunde und 38 Minuten, um 10:13 UTC
Gültige Prognose vom 24 um 12 UTC bis 24 um 24 UTC
Wind 10 kt aus Süd
Sichtweite 10 km oder mehr
keine Wolken unter 1500 m und keine Kumulonimbus oder Gewitterwolken

TAF: SCJO 241013Z 2412/2424 18010KT CAVOK TN13/2413Z TX24/2419Z

Wetterbeobachtungen und Prognosen von mehr als 4000 Flughäfen (METAR und TAF Bericht).

Die verfügbaren Stationen werden durch gelbe und rote Markierungen auf der Karte dargestellt.

Führen Sie die Maus auf sie, um den Namen der Station zu sehen.

Darauf klicken, um die Beobachtung von Wetterbeobachtungen und Prognosen zu sehen.

Um die Karte zu ändern : klicken Sie auf den grünen Tasten mit einem schwarzen Kreuz Zum Vergrößern, auf den grünen Button mit einem Gedankenstrich zu verkleinern, oder auf die grünen Pfeile für benachbarte Karten.


METAR-TAF: